Time;durP1;ratioP1;P1;durP2;ratioP2;P2;SDS_P1;SDS_P2;PMS_P1;PMS_P2;Temp;Humidity;BMP_temperature;BMP_pressure;BME280_temperature;BME280_humidity;BME280_pressure;Samples;Min_cycle;Max_cycle;Signal;HPM_P1;HPM_P2
2022/08/27 00:01:28;;;;;;;6.45;3.40;;;;;;;17.97;66.49;101899.88;4913989;28;20398;-58
2022/08/27 00:03:54;;;;;;;7.10;3.63;;;;;;;17.88;66.37;101902.50;4933064;28;20122;-59
2022/08/27 00:06:20;;;;;;;4.78;3.50;;;;;;;17.73;67.10;101902.50;4923654;28;20468;-60
2022/08/27 00:08:47;;;;;;;5.93;3.40;;;;;;;17.85;67.21;101889.31;4938678;28;20035;-59
2022/08/27 00:11:13;;;;;;;7.32;3.63;;;;;;;17.83;67.17;101891.94;4920838;28;20049;-59
2022/08/27 00:13:39;;;;;;;7.03;3.40;;;;;;;17.82;67.70;101895.47;4926983;28;20033;-58
2022/08/27 00:16:06;;;;;;;6.03;3.30;;;;;;;17.80;67.73;101897.25;4934695;28;20030;-59
2022/08/27 00:18:52;;;;;;;9.18;3.65;;;;;;;17.66;68.66;101898.09;4933452;28;20429;-58
2022/08/27 00:21:17;;;;;;;9.02;3.30;;;;;;;17.72;68.76;101893.72;4932825;28;20063;-58
2022/08/27 00:23:43;;;;;;;6.72;3.40;;;;;;;17.79;68.79;101897.22;4931106;28;20121;-58
2022/08/27 00:26:09;;;;;;;4.68;2.95;;;;;;;17.76;68.49;101887.53;4937647;28;20076;-58
2022/08/27 00:28:35;;;;;;;7.07;3.38;;;;;;;17.73;68.05;101890.19;4934072;28;20481;-60
2022/08/27 00:31:01;;;;;;;4.80;3.03;;;;;;;17.69;68.11;101891.06;4924090;28;20047;-60
2022/08/27 00:33:27;;;;;;;6.32;3.55;;;;;;;17.61;68.33;101884.91;4924303;28;20085;-58
2022/08/27 00:35:53;;;;;;;5.38;3.40;;;;;;;17.67;68.37;101884.91;4927941;28;20045;-58
2022/08/27 00:38:20;;;;;;;7.43;3.20;;;;;;;17.73;68.26;101882.28;4912832;28;20587;-59
2022/08/27 00:40:46;;;;;;;5.95;3.15;;;;;;;17.78;67.96;101883.16;4927446;28;20470;-59
2022/08/27 00:43:13;;;;;;;7.35;3.17;;;;;;;17.78;67.62;101885.78;4922009;28;20047;-59
2022/08/27 00:45:42;;;;;;;5.00;3.20;;;;;;;17.66;67.20;101885.78;4933773;28;20030;-59
2022/08/27 00:48:11;;;;;;;6.88;3.20;;;;;;;17.58;67.19;101884.00;4934763;28;20074;-59
2022/08/27 00:50:41;;;;;;;5.47;3.17;;;;;;;17.62;67.18;101884.03;4906007;28;20129;-61
2022/08/27 00:53:12;;;;;;;7.28;3.00;;;;;;;17.57;67.55;101891.00;4925891;28;20110;-58
2022/08/27 00:55:49;;;;;;;7.00;3.35;;;;;;;17.61;68.05;101887.56;4939651;28;21643;-58
2022/08/27 00:58:36;;;;;;;6.60;3.30;;;;;;;17.59;67.86;101883.13;4930855;28;20085;-58
2022/08/27 01:01:06;;;;;;;7.50;3.20;;;;;;;17.57;67.76;101880.47;4917333;28;20035;-60
2022/08/27 01:03:33;;;;;;;6.75;3.40;;;;;;;17.54;68.21;101882.25;4921999;28;20481;-58
2022/08/27 01:06:00;;;;;;;6.05;3.10;;;;;;;17.52;68.40;101889.25;4918209;28;22284;-60
2022/08/27 01:08:31;;;;;;;7.25;3.40;;;;;;;17.55;68.76;101895.44;4930760;28;20409;-59
2022/08/27 01:10:58;;;;;;;5.20;3.30;;;;;;;17.56;68.81;101897.19;4917495;28;20030;-59
2022/08/27 01:13:28;;;;;;;5.85;3.00;;;;;;;17.53;68.26;101898.94;4906234;28;20101;-59
2022/08/27 01:15:57;;;;;;;5.47;3.03;;;;;;;17.52;68.59;101892.78;4926647;28;20100;-58
2022/08/27 01:18:28;;;;;;;5.70;3.30;;;;;;;17.51;67.97;101895.41;4903284;28;20140;-58
2022/08/27 01:21:02;;;;;;;7.30;3.28;;;;;;;17.48;67.86;101896.28;4929425;28;20037;-58
2022/08/27 01:23:49;;;;;;;;;;;;;;;17.45;67.74;101898.91;4908296;28;21394;-58
2022/08/27 01:26:16;;;;;;;8.73;3.20;;;;;;;17.46;67.58;101895.41;4930721;28;20012;-58
2022/08/27 01:28:43;;;;;;;5.07;3.08;;;;;;;17.43;67.55;101888.38;4928788;28;20038;-59
2022/08/27 01:31:10;;;;;;;6.45;3.10;;;;;;;17.43;67.83;101893.66;4896526;28;20042;-58
2022/08/27 01:33:36;;;;;;;6.15;3.28;;;;;;;17.39;67.86;101893.63;4921872;28;20031;-58
2022/08/27 01:36:02;;;;;;;6.30;3.28;;;;;;;17.38;67.81;101887.47;4930848;28;21257;-58
2022/08/27 01:38:28;;;;;;;6.25;3.30;;;;;;;17.34;67.72;101890.09;4925897;28;20031;-58
2022/08/27 01:40:54;;;;;;;7.97;2.95;;;;;;;17.41;67.77;101891.88;4923059;28;20037;-59
2022/08/27 01:43:20;;;;;;;5.38;3.10;;;;;;;17.38;67.46;101891.91;4929699;28;21939;-59
2022/08/27 01:45:50;;;;;;;7.57;3.20;;;;;;;17.42;67.67;101885.75;4930823;28;20058;-58
2022/08/27 01:48:19;;;;;;;6.55;3.10;;;;;;;17.46;67.43;101890.13;4922202;28;20045;-58
2022/08/27 01:50:46;;;;;;;7.28;3.30;;;;;;;17.44;67.92;101884.00;4925154;28;20109;-58
2022/08/27 01:53:19;;;;;;;5.78;3.15;;;;;;;17.43;67.76;101887.50;4915819;28;20039;-59
2022/08/27 01:55:46;;;;;;;5.55;3.40;;;;;;;17.37;68.15;101887.50;4922065;28;20034;-60
2022/08/27 01:58:12;;;;;;;6.72;3.40;;;;;;;17.33;68.25;101886.59;4929109;28;20043;-59
2022/08/27 02:00:41;;;;;;;8.75;3.60;;;;;;;17.31;68.31;101887.50;4924020;28;20126;-58
2022/08/27 02:03:08;;;;;;;7.45;3.80;;;;;;;17.31;68.58;101887.50;4918855;28;20126;-58
2022/08/27 02:05:34;;;;;;;8.80;3.90;;;;;;;17.31;68.77;101884.84;4916232;28;20472;-59
2022/08/27 02:08:00;;;;;;;9.82;4.55;;;;;;;17.33;68.38;101878.69;4927661;28;20058;-59
2022/08/27 02:10:30;;;;;;;12.98;5.90;;;;;;;17.34;68.44;101884.84;4929268;28;20147;-60
2022/08/27 02:12:56;;;;;;;12.93;6.05;;;;;;;17.35;68.23;101876.94;4919536;28;20085;-58
2022/08/27 02:15:23;;;;;;;12.38;6.60;;;;;;;17.31;68.04;101875.19;4928222;28;20042;-58
2022/08/27 02:17:51;;;;;;;14.40;6.72;;;;;;;17.26;68.10;101871.63;4919351;28;20043;-59
2022/08/27 02:20:19;;;;;;;11.75;6.50;;;;;;;17.25;68.17;101879.56;4926664;28;20489;-59
2022/08/27 02:22:45;;;;;;;18.67;7.50;;;;;;;17.24;68.39;101878.69;4930365;28;20093;-60
2022/08/27 02:25:12;;;;;;;13.65;7.20;;;;;;;17.20;68.28;101876.91;4916676;28;20050;-59
2022/08/27 02:27:38;;;;;;;15.30;7.55;;;;;;;17.21;68.39;101873.41;4928864;28;20113;-60
2022/08/27 02:30:05;;;;;;;15.45;7.50;;;;;;;17.22;68.22;101869.88;4915635;28;20565;-58
2022/08/27 02:32:36;;;;;;;16.65;8.10;;;;;;;17.16;68.32;101869.88;4920999;28;20037;-60
2022/08/27 02:35:03;;;;;;;16.65;8.13;;;;;;;17.06;68.75;101870.75;4922256;28;20058;-60
2022/08/27 02:37:29;;;;;;;17.63;8.00;;;;;;;17.10;68.86;101875.13;4918266;28;20511;-58
2022/08/27 02:39:54;;;;;;;19.60;8.63;;;;;;;17.15;68.92;101873.38;4928383;28;20750;-58
2022/08/27 02:42:20;;;;;;;18.23;8.02;;;;;;;17.20;68.75;101868.16;4928244;28;20042;-58
2022/08/27 02:44:46;;;;;;;17.27;7.90;;;;;;;17.25;68.59;101867.28;4918692;28;20630;-59
2022/08/27 02:47:13;;;;;;;14.55;7.65;;;;;;;17.28;68.48;101867.25;4923609;28;20096;-59
2022/08/27 02:49:38;;;;;;;17.92;8.20;;;;;;;17.30;68.26;101869.91;4928294;28;20074;-60
2022/08/27 02:52:04;;;;;;;17.17;7.60;;;;;;;17.29;67.94;101861.13;4922487;28;20274;-58
2022/08/27 02:54:29;;;;;;;14.90;7.78;;;;;;;17.25;67.67;101854.09;4908230;28;20847;-58
2022/08/27 02:56:55;;;;;;;17.75;8.35;;;;;;;17.16;67.58;101858.44;4922575;28;20033;-59
2022/08/27 02:59:21;;;;;;;15.18;7.68;;;;;;;17.12;67.68;101854.94;4920149;28;20436;-59
2022/08/27 03:01:51;;;;;;;17.20;7.85;;;;;;;17.08;67.79;101852.31;4918460;28;20047;-58
2022/08/27 03:04:18;;;;;;;14.98;7.72;;;;;;;17.01;68.29;101854.03;4929664;28;20031;-59
2022/08/27 03:06:45;;;;;;;17.35;7.70;;;;;;;16.96;68.67;101850.50;4924767;28;20081;-59
2022/08/27 03:09:11;;;;;;;16.23;7.43;;;;;;;16.99;68.66;101851.41;4922952;28;20066;-59
2022/08/27 03:11:36;;;;;;;13.93;7.07;;;;;;;17.00;68.82;101847.00;4926358;28;20158;-59
2022/08/27 03:14:01;;;;;;;16.45;7.28;;;;;;;16.97;69.03;101854.88;4928982;28;20038;-59
2022/08/27 03:16:27;;;;;;;14.38;6.90;;;;;;;16.91;69.70;101852.25;4929548;28;21022;-59
2022/08/27 03:18:52;;;;;;;14.73;6.55;;;;;;;16.99;69.47;101850.53;4925263;28;20054;-58
2022/08/27 03:21:21;;;;;;;12.52;6.22;;;;;;;17.00;69.46;101857.56;4918149;28;20031;-58
2022/08/27 03:23:50;;;;;;;12.65;6.30;;;;;;;17.03;69.21;101852.28;4916415;28;20667;-58
2022/08/27 03:26:17;;;;;;;13.32;6.30;;;;;;;16.94;69.11;101850.50;4926302;28;20041;-59
2022/08/27 03:28:44;;;;;;;11.95;6.00;;;;;;;16.93;69.14;101854.03;4927581;28;20481;-59
2022/08/27 03:31:25;;;;;;;13.05;6.13;;;;;;;16.95;69.15;101848.75;4906111;28;20604;-58
2022/08/27 03:33:56;;;;;;;10.25;5.50;;;;;;;16.99;68.90;101856.66;4929224;28;20042;-59
2022/08/27 03:36:22;;;;;;;11.70;5.68;;;;;;;16.98;68.95;101848.75;4929053;28;20073;-59
2022/08/27 03:38:48;;;;;;;10.63;5.45;;;;;;;16.93;68.79;101851.38;4919940;28;20067;-60
2022/08/27 03:41:15;;;;;;;11.00;5.35;;;;;;;16.90;68.97;101851.34;4908961;28;20174;-58
2022/08/27 03:43:51;;;;;;;10.45;5.60;;;;;;;16.95;68.78;101846.13;4915266;28;20077;-58
2022/08/27 03:46:19;;;;;;;11.23;5.28;;;;;;;17.05;68.72;101845.25;4932199;28;20054;-58
2022/08/27 03:48:46;;;;;;;10.05;5.07;;;;;;;17.09;68.69;101847.03;4922690;28;20050;-59
2022/08/27 03:51:13;;;;;;;8.25;4.70;;;;;;;17.07;68.28;101840.88;4931135;28;20504;-58
2022/08/27 03:53:42;;;;;;;9.85;4.85;;;;;;;17.04;68.16;101846.13;4917686;28;20877;-58
2022/08/27 03:56:10;;;;;;;10.43;4.75;;;;;;;17.05;68.32;101845.25;4922030;28;20447;-58
2022/08/27 03:58:37;;;;;;;9.38;4.90;;;;;;;17.13;68.89;101843.53;4923003;28;20078;-59
2022/08/27 04:01:22;;;;;;;9.02;4.40;;;;;;;17.23;68.51;101841.78;4929755;28;20047;-58
2022/08/27 04:03:47;;;;;;;8.57;4.40;;;;;;;17.22;68.48;101846.16;4937242;28;20039;-58
2022/08/27 04:06:12;;;;;;;8.02;4.50;;;;;;;17.19;69.00;101846.19;4930762;28;20073;-59
2022/08/27 04:08:38;;;;;;;8.50;4.20;;;;;;;17.24;69.11;101843.53;4940624;28;20031;-59
2022/08/27 04:11:06;;;;;;;8.60;4.43;;;;;;;17.27;69.18;101846.16;4917881;28;20033;-60
2022/08/27 04:13:32;;;;;;;8.13;4.07;;;;;;;17.28;69.51;101838.28;4929502;28;20063;-59
2022/08/27 04:15:58;;;;;;;8.40;3.78;;;;;;;17.33;69.27;101844.41;4933291;28;20033;-58
2022/08/27 04:18:23;;;;;;;8.57;3.75;;;;;;;17.43;69.24;101843.56;4931308;28;20417;-58
2022/08/27 04:20:51;;;;;;;6.60;3.40;;;;;;;17.50;69.09;101833.03;4932191;28;20041;-58
2022/08/27 04:23:17;;;;;;;6.90;3.35;;;;;;;17.53;68.50;101838.28;4920592;28;20517;-58
2022/08/27 04:25:43;;;;;;;5.78;3.15;;;;;;;17.55;67.82;101844.44;4926890;28;20038;-58
2022/08/27 04:28:10;;;;;;;5.53;3.10;;;;;;;17.51;67.68;101842.66;4931363;28;20495;-58
2022/08/27 04:30:45;;;;;;;5.38;3.40;;;;;;;17.47;68.11;101844.44;4930499;28;20073;-59
2022/08/27 04:33:12;;;;;;;8.32;3.30;;;;;;;17.45;67.63;101840.91;4918587;28;20039;-59
2022/08/27 04:35:39;;;;;;;6.82;3.33;;;;;;;17.41;67.63;101836.53;4925553;28;20049;-59
2022/08/27 04:38:04;;;;;;;5.57;2.92;;;;;;;17.27;68.31;101849.69;4940949;28;20146;-58
2022/08/27 04:43:15;;;;;;;6.05;3.20;;;;;;;17.22;68.52;101855.81;4914212;28;20054;-58
2022/08/27 04:45:49;;;;;;;5.80;3.22;;;;;;;17.12;69.03;101856.69;4926633;28;20035;-58
2022/08/27 04:48:16;;;;;;;;;;;;;;;17.07;69.46;101863.72;4931763;28;20125;-58
2022/08/27 04:50:43;;;;;;;6.00;2.80;;;;;;;17.08;69.56;101868.13;4931078;28;19933;-59
2022/08/27 04:53:11;;;;;;;6.05;3.00;;;;;;;17.10;69.95;101858.44;4926007;28;20053;-58
2022/08/27 04:55:49;;;;;;;5.45;2.90;;;;;;;17.21;70.14;101859.34;4931469;28;20035;-59
2022/08/27 04:58:15;;;;;;;4.97;2.78;;;;;;;17.32;70.12;101861.09;4933121;28;20046;-58
2022/08/27 05:00:47;;;;;;;4.13;2.60;;;;;;;17.37;69.67;101856.75;4921175;28;20077;-59
2022/08/27 05:03:14;;;;;;;6.38;2.95;;;;;;;17.39;69.81;101857.59;4924972;28;20060;-59
2022/08/27 05:05:40;;;;;;;5.32;2.78;;;;;;;17.55;69.58;101869.06;4935085;28;20047;-59
2022/08/27 05:08:05;;;;;;;5.35;2.70;;;;;;;17.70;69.51;101863.81;4934146;28;20031;-58
2022/08/27 05:10:39;;;;;;;4.70;2.75;;;;;;;17.80;68.90;101869.97;4923671;28;20112;-58
2022/08/27 05:13:04;;;;;;;4.15;2.78;;;;;;;17.88;69.08;101877.88;4923526;28;20049;-58
2022/08/27 05:15:30;;;;;;;7.00;2.80;;;;;;;17.99;69.44;101879.59;4924243;28;20039;-58
2022/08/27 05:17:59;;;;;;;6.78;2.80;;;;;;;18.11;69.30;101876.09;4928751;28;20648;-59
2022/08/27 05:20:28;;;;;;;6.03;2.70;;;;;;;18.20;69.02;101871.66;4935706;28;20035;-59
2022/08/27 05:22:54;;;;;;;4.63;2.60;;;;;;;18.30;68.49;101875.16;4923875;28;21023;-58
2022/08/27 05:25:19;;;;;;;4.88;2.75;;;;;;;18.37;68.18;101882.19;4916651;28;20082;-58
2022/08/27 05:27:45;;;;;;;5.40;2.60;;;;;;;18.43;67.43;101878.66;4931369;28;20061;-58
2022/08/27 05:30:11;;;;;;;6.20;2.83;;;;;;;18.46;67.22;101874.25;4922579;28;20063;-59
2022/08/27 05:32:38;;;;;;;5.18;2.47;;;;;;;18.52;67.45;101881.28;4943585;28;20035;-57
2022/08/27 05:35:08;;;;;;;4.45;2.60;;;;;;;18.57;66.95;101876.88;4931544;28;20632;-59
2022/08/27 05:37:41;;;;;;;6.57;2.70;;;;;;;18.58;67.98;101879.53;4924132;28;20141;-58
2022/08/27 05:40:08;;;;;;;6.38;3.10;;;;;;;18.53;68.53;101883.91;4935210;28;20039;-58
2022/08/27 05:42:33;;;;;;;5.72;3.00;;;;;;;18.61;69.11;101882.13;4934460;28;20154;-59
2022/08/27 05:44:58;;;;;;;5.28;2.80;;;;;;;18.67;69.28;101872.44;4922841;28;20409;-59
2022/08/27 05:47:24;;;;;;;5.60;2.55;;;;;;;18.75;69.40;101883.84;4919236;28;20798;-59
2022/08/27 05:49:53;;;;;;;5.05;2.65;;;;;;;18.87;69.15;101887.31;4933133;28;20035;-58
2022/08/27 05:52:20;;;;;;;4.40;2.42;;;;;;;18.94;68.26;101874.97;4930625;28;20059;-59
2022/08/27 05:54:46;;;;;;;4.80;2.42;;;;;;;19.00;68.09;101869.63;4908983;28;20242;-58
2022/08/27 05:57:11;;;;;;;5.38;2.65;;;;;;;19.09;68.16;101881.94;4915032;28;20592;-58
2022/08/27 06:02:21;;;;;;;5.10;2.60;;;;;;;19.16;68.15;101875.72;4927342;28;20057;-58
2022/08/27 06:04:47;;;;;;;3.90;2.33;;;;;;;19.20;67.60;101870.41;4918275;28;20038;-58
2022/08/27 06:07:12;;;;;;;6.15;2.40;;;;;;;19.31;67.47;101872.97;4919027;28;20038;-59
2022/08/27 06:09:38;;;;;;;6.82;2.50;;;;;;;19.42;66.94;101871.13;4910916;28;20126;-59
2022/08/27 06:12:06;;;;;;;3.85;2.45;;;;;;;19.52;67.09;101870.19;4910573;28;20043;-59
2022/08/27 06:14:41;;;;;;;5.43;2.60;;;;;;;19.64;66.58;101875.38;4922407;28;20520;-59
2022/08/27 06:17:16;;;;;;;4.15;2.47;;;;;;;19.83;66.13;101884.06;4928685;28;20129;-60
2022/08/27 06:19:41;;;;;;;5.20;2.55;;;;;;;20.06;65.56;101873.28;4919035;28;20050;-59
2022/08/27 06:22:08;;;;;;;5.47;2.40;;;;;;;20.16;65.08;101877.59;4926190;28;20031;-59
2022/08/27 06:24:34;;;;;;;7.10;2.38;;;;;;;20.22;65.11;101881.03;4922969;28;20141;-59
2022/08/27 06:27:00;;;;;;;4.55;2.55;;;;;;;20.35;64.71;101873.88;4919567;28;20031;-58
2022/08/27 06:29:25;;;;;;;5.72;2.40;;;;;;;20.56;64.23;101872.75;4914245;28;20364;-59
2022/08/27 06:31:53;;;;;;;5.55;2.55;;;;;;;20.75;62.94;101870.75;4922944;28;20023;-58
2022/08/27 06:34:19;;;;;;;6.00;2.30;;;;;;;20.91;61.83;101864.38;4925013;28;20497;-59
2022/08/27 06:36:45;;;;;;;7.35;2.75;;;;;;;21.04;59.39;101868.59;4919267;28;20039;-59
2022/08/27 06:39:12;;;;;;;4.25;2.30;;;;;;;21.06;60.18;101874.75;4931456;28;20631;-58
2022/08/27 06:41:39;;;;;;;4.45;2.60;;;;;;;21.13;58.97;101868.47;4923805;28;20047;-58
2022/08/27 06:44:05;;;;;;;6.47;2.90;;;;;;;21.34;58.38;101867.31;4920276;28;20062;-60
2022/08/27 06:46:30;;;;;;;5.45;2.83;;;;;;;21.25;57.93;101872.75;4926831;28;20043;-58
2022/08/27 06:48:59;;;;;;;5.68;2.47;;;;;;;21.33;58.96;101865.56;4915645;28;20050;-58
2022/08/27 06:51:34;;;;;;;5.50;2.80;;;;;;;21.27;60.12;101877.13;4916790;28;20559;-58
2022/08/27 06:54:02;;;;;;;6.18;2.65;;;;;;;21.50;58.55;101865.28;4928468;28;20062;-59
2022/08/27 06:56:28;;;;;;;7.38;3.05;;;;;;;21.66;57.75;101870.31;4927019;28;20525;-59
2022/08/27 06:58:56;;;;;;;9.68;3.05;;;;;;;21.61;57.82;101872.16;4929581;28;20038;-59
2022/08/27 07:01:26;;;;;;;8.35;3.28;;;;;;;21.48;57.07;101875.91;4914380;28;20049;-59
2022/08/27 07:04:00;;;;;;;5.80;3.15;;;;;;;21.62;57.36;101873.94;4929325;28;20047;-60
2022/08/27 07:06:28;;;;;;;5.72;3.17;;;;;;;21.75;56.84;101875.47;4918888;28;20047;-58
2022/08/27 07:08:55;;;;;;;8.80;3.17;;;;;;;21.70;58.24;101872.03;4924371;28;20035;-59
2022/08/27 07:11:23;;;;;;;6.00;3.08;;;;;;;21.81;58.22;101877.16;4919369;28;20260;-59
2022/08/27 07:13:50;;;;;;;6.63;3.20;;;;;;;21.94;58.21;101876.03;4929600;28;20031;-59
2022/08/27 07:16:21;;;;;;;6.05;3.10;;;;;;;21.95;57.44;101876.91;4935579;28;20045;-60
2022/08/27 07:18:50;;;;;;;5.15;3.20;;;;;;;22.24;56.05;101880.81;4916464;28;20055;-58
2022/08/27 07:21:20;;;;;;;5.45;2.70;;;;;;;22.42;54.43;101882.25;4935100;28;20081;-58
2022/08/27 07:23:47;;;;;;;6.00;2.90;;;;;;;22.56;53.75;101877.53;4935186;28;20469;-60
2022/08/27 07:26:14;;;;;;;5.35;2.80;;;;;;;22.45;53.51;101878.63;4940701;28;20089;-58
2022/08/27 07:28:41;;;;;;;5.85;2.63;;;;;;;22.45;53.21;101882.16;4932079;28;20058;-58
2022/08/27 07:31:12;;;;;;;9.50;2.80;;;;;;;22.58;53.24;101886.34;4931042;28;20050;-58
2022/08/27 07:33:39;;;;;;;6.40;2.85;;;;;;;22.62;52.46;101884.50;4930118;28;20038;-58
2022/08/27 07:36:08;;;;;;;6.97;2.53;;;;;;;22.88;52.37;101892.84;4916037;28;20047;-60
2022/08/27 07:38:36;;;;;;;5.00;2.40;;;;;;;23.07;52.08;101890.66;4913925;28;20074;-59
2022/08/27 07:41:10;;;;;;;7.80;2.85;;;;;;;23.07;52.87;101890.66;4918155;28;20046;-58
2022/08/27 07:46:21;;;;;;;5.70;2.53;;;;;;;23.44;52.09;101890.69;4933024;28;20524;-59
2022/08/27 07:48:47;;;;;;;4.75;2.65;;;;;;;23.39;52.51;101892.59;4929685;28;20790;-59
2022/08/27 07:51:16;;;;;;;6.18;2.60;;;;;;;23.75;49.54;101896.19;4924296;28;20027;-59
2022/08/27 07:53:48;;;;;;;9.98;3.33;;;;;;;23.08;50.56;101891.53;4920919;28;20105;-59
2022/08/27 07:56:14;;;;;;;8.27;3.25;;;;;;;23.61;49.16;101893.84;4923430;28;20038;-58
2022/08/27 07:58:40;;;;;;;5.65;2.95;;;;;;;23.44;50.08;101888.91;4930835;28;20370;-58
2022/08/27 08:01:10;;;;;;;6.15;3.05;;;;;;;23.94;48.64;101896.59;4907540;28;20306;-58
2022/08/27 08:03:35;;;;;;;7.55;2.70;;;;;;;24.11;48.47;101894.34;4930060;28;20038;-57
2022/08/27 08:06:10;;;;;;;6.68;2.92;;;;;;;24.01;49.41;101901.72;4910665;28;20030;-58
2022/08/27 08:08:39;;;;;;;5.78;3.00;;;;;;;24.31;47.47;101901.84;4898632;28;20309;-58
2022/08/27 08:11:11;;;;;;;7.78;2.70;;;;;;;24.78;46.67;101903.16;4908985;28;20054;-59
2022/08/27 08:13:37;;;;;;;6.55;2.85;;;;;;;24.19;47.58;101908.38;4933816;28;20093;-59
2022/08/27 08:16:03;;;;;;;6.78;3.00;;;;;;;24.18;47.12;101910.19;4911205;28;20023;-59
2022/08/27 08:18:29;;;;;;;7.57;2.60;;;;;;;24.60;46.90;101910.78;4934777;28;20043;-57
2022/08/27 08:21:02;;;;;;;5.90;2.83;;;;;;;24.88;45.77;101913.53;4901698;28;20042;-59
2022/08/27 08:23:28;;;;;;;8.57;2.38;;;;;;;24.85;46.02;101907.41;4922112;28;20042;-58
2022/08/27 08:25:54;;;;;;;5.40;2.10;;;;;;;24.89;46.41;101907.28;4930150;28;20275;-58
2022/08/27 08:28:19;;;;;;;6.20;1.90;;;;;;;24.54;44.85;101913.63;4928851;28;20131;-58
2022/08/27 08:30:46;;;;;;;4.25;1.90;;;;;;;23.60;45.51;101915.19;4883413;28;20054;-59
2022/08/27 08:33:12;;;;;;;5.70;1.98;;;;;;;23.97;44.69;101916.00;4928702;28;20042;-58
2022/08/27 08:35:39;;;;;;;5.68;1.80;;;;;;;23.61;46.82;101916.94;4955171;28;20049;-58
2022/08/27 08:38:05;;;;;;;3.85;1.80;;;;;;;24.07;45.24;101919.34;4929910;28;21236;-57
2022/08/27 08:40:37;;;;;;;3.85;1.77;;;;;;;24.65;44.79;101921.31;4941871;28;20030;-57
2022/08/27 08:43:37;;;;;;;3.92;1.52;;;;;;;24.64;42.08;101919.59;4946652;28;20088;-60
2022/08/27 08:46:16;;;;;;;4.03;1.60;;;;;;;24.38;41.77;101914.97;4915922;28;20470;-59
2022/08/27 08:48:51;;;;;;;3.75;1.70;;;;;;;24.50;41.99;101919.97;4942526;28;20061;-59
2022/08/27 08:51:35;;;;;;;5.57;1.60;;;;;;;24.76;41.66;101921.91;4934396;28;20105;-59
2022/08/27 08:54:43;;;;;;;4.25;1.70;;;;;;;24.99;40.07;101921.25;4926860;28;20026;-60
2022/08/27 08:57:41;;;;;;;3.35;1.40;;;;;;;25.75;38.16;101914.41;4942327;28;20119;-58
2022/08/27 09:00:12;;;;;;;7.75;1.65;;;;;;;25.49;39.47;101919.69;4925640;28;20050;-59
2022/08/27 09:02:43;;;;;;;3.65;1.52;;;;;;;25.30;39.14;101923.88;4949685;28;20032;-59
2022/08/27 09:05:08;;;;;;;8.00;1.60;;;;;;;25.20;38.32;101922.38;4931662;28;20077;-59
2022/08/27 09:07:44;;;;;;;3.85;1.60;;;;;;;25.06;39.42;101933.50;4950845;28;20696;-59
2022/08/27 09:10:36;;;;;;;3.95;1.90;;;;;;;24.78;40.30;101937.84;4949575;28;20030;-63
2022/08/27 09:13:04;;;;;;;4.60;1.60;;;;;;;24.57;40.24;101934.88;4959062;28;20142;-57
2022/08/27 09:15:35;;;;;;;5.28;1.63;;;;;;;24.73;40.77;101937.09;4946330;28;20513;-58
2022/08/27 09:18:13;;;;;;;3.70;1.50;;;;;;;24.12;41.22;101933.41;4943601;28;20058;-60
2022/08/27 09:20:49;;;;;;;5.50;1.90;;;;;;;24.07;41.70;101935.31;4940540;28;20544;-58
2022/08/27 09:23:29;;;;;;;4.53;1.58;;;;;;;23.75;41.81;101931.66;4916794;28;20077;-58
2022/08/27 09:25:55;;;;;;;10.32;1.60;;;;;;;24.22;42.40;101934.94;4940935;28;20120;-58
2022/08/27 09:31:14;;;;;;;3.97;1.38;;;;;;;23.74;42.10;101939.69;4934367;28;20053;-59
2022/08/27 09:33:46;;;;;;;3.10;1.40;;;;;;;23.88;41.86;101939.34;4937839;28;20531;-61
2022/08/27 09:36:14;;;;;;;5.13;1.70;;;;;;;23.93;42.65;101943.66;4938954;28;20128;-60
2022/08/27 09:38:55;;;;;;;3.95;1.42;;;;;;;24.43;44.07;101950.38;4929370;28;20033;-60
2022/08/27 09:41:25;;;;;;;5.38;1.60;;;;;;;24.34;42.09;101950.59;4924134;28;20061;-60
2022/08/27 09:44:12;;;;;;;4.63;1.63;;;;;;;24.32;42.44;101935.59;4931111;28;20050;-59
2022/08/27 09:46:38;;;;;;;3.92;1.92;;;;;;;24.35;41.52;101946.16;4952541;28;20045;-60
2022/08/27 09:49:16;;;;;;;3.45;1.63;;;;;;;23.99;42.77;101942.63;4949266;28;20852;-60
2022/08/27 09:51:47;;;;;;;5.47;1.50;;;;;;;24.40;41.19;101939.78;4956895;28;20025;-59
2022/08/27 09:54:27;;;;;;;4.75;1.40;;;;;;;24.62;40.35;101934.75;4933138;28;20038;-60
2022/08/27 09:56:53;;;;;;;4.88;1.40;;;;;;;24.83;39.80;101933.25;4946979;28;20034;-59
2022/08/27 09:59:26;;;;;;;5.47;1.50;;;;;;;24.67;40.30;101933.69;4935562;28;20041;-59
2022/08/27 10:02:01;;;;;;;5.15;1.40;;;;;;;25.04;39.82;101938.88;4946350;28;20030;-59
2022/08/27 10:04:35;;;;;;;4.85;1.40;;;;;;;24.73;41.01;101931.78;4921960;28;20054;-59
2022/08/27 10:07:18;;;;;;;4.55;1.45;;;;;;;24.69;40.35;101941.66;4951335;28;20022;-59
2022/08/27 10:10:00;;;;;;;3.38;1.35;;;;;;;24.61;40.28;101935.66;4945687;28;20071;-60
2022/08/27 10:12:42;;;;;;;3.05;1.30;;;;;;;24.34;40.93;101931.06;4930467;28;20026;-59
2022/08/27 10:15:10;;;;;;;7.72;1.80;;;;;;;24.32;40.86;101936.47;4940592;28;20101;-59
2022/08/27 10:17:42;;;;;;;5.95;1.70;;;;;;;24.33;40.86;101930.22;4924586;28;20046;-59
2022/08/27 10:20:20;;;;;;;3.30;1.30;;;;;;;24.51;41.16;101929.72;4931280;28;20046;-59
2022/08/27 10:23:25;;;;;;;3.70;1.80;;;;;;;24.98;40.24;101927.50;4940530;28;20097;-59
2022/08/27 10:26:20;;;;;;;5.22;1.70;;;;;;;24.88;40.51;101926.88;4930050;28;21244;-59
2022/08/27 10:28:51;;;;;;;5.22;1.50;;;;;;;24.84;40.28;101925.19;4911219;28;20049;-59
2022/08/27 10:31:47;;;;;;;5.85;1.40;;;;;;;25.19;40.15;101923.34;4955110;28;20422;-57
2022/08/27 10:34:27;;;;;;;4.03;1.42;;;;;;;25.37;39.59;101920.94;4940371;28;20049;-60
2022/08/27 10:36:59;;;;;;;8.02;1.50;;;;;;;25.22;39.22;101920.56;4955264;28;20065;-60
2022/08/27 10:43:30;;;;;;;5.05;1.50;;;;;;;26.14;38.24;101919.31;4951381;28;20613;-59
2022/08/27 10:46:22;;;;;;;4.03;1.40;;;;;;;26.06;39.03;101922.25;4951145;28;20037;-60
2022/08/27 10:49:20;;;;;;;3.15;1.20;;;;;;;26.19;37.96;101923.59;4952720;28;20632;-59
2022/08/27 11:02:46;;;;;;;4.93;1.80;;;;;;;25.27;39.24;101911.47;4890718;27;20418;-68
2022/08/27 11:05:27;;;;;;;4.72;1.70;;;;;;;25.89;37.57;101923.75;4956071;28;20133;-68
2022/08/27 11:07:58;;;;;;;5.05;1.73;;;;;;;24.77;39.15;101923.63;4923830;28;20044;-68
2022/08/27 11:10:35;;;;;;;4.00;1.50;;;;;;;25.11;38.77;101920.00;4969019;28;20038;-67
2022/08/27 11:13:08;;;;;;;5.53;1.60;;;;;;;25.86;38.15;101919.38;4931627;28;20114;-67
2022/08/27 11:15:40;;;;;;;5.70;1.63;;;;;;;25.97;37.33;101930.59;4894055;28;20054;-67
2022/08/27 11:18:20;;;;;;;5.13;1.50;;;;;;;26.01;37.92;101918.88;4940871;28;20583;-66
2022/08/27 11:20:58;;;;;;;8.32;1.50;;;;;;;25.91;39.52;101921.91;4955170;28;20039;-69
2022/08/27 11:23:39;;;;;;;4.30;1.50;;;;;;;25.88;37.95;101914.00;4968261;28;20465;-69
2022/08/27 11:26:05;;;;;;;5.80;1.45;;;;;;;25.32;38.28;101920.22;4939187;28;20424;-69
2022/08/27 11:28:59;;;;;;;4.68;1.50;;;;;;;24.91;39.80;101918.81;4932234;28;20482;-69
2022/08/27 11:31:42;;;;;;;3.60;1.50;;;;;;;25.16;39.86;101918.06;4929642;28;21176;-70
2022/08/27 11:34:40;;;;;;;2.75;1.35;;;;;;;25.50;39.25;101918.75;4944830;28;20502;-68
2022/08/27 11:37:40;;;;;;;4.85;1.52;;;;;;;25.69;39.74;101903.91;4938996;28;20035;-68
2022/08/27 11:40:54;;;;;;;4.50;1.50;;;;;;;25.22;40.44;101915.22;4950811;28;20035;-68
2022/08/27 11:43:25;;;;;;;5.35;1.77;;;;;;;24.92;40.72;101914.34;4965789;28;20038;-67
2022/08/27 11:46:00;;;;;;;7.18;1.85;;;;;;;25.25;40.58;101920.47;4968980;28;20081;-68
2022/08/27 11:48:30;;;;;;;5.18;1.88;;;;;;;25.05;41.00;101915.75;4942209;28;20079;-68
2022/08/27 11:51:03;;;;;;;6.72;1.80;;;;;;;25.02;41.37;101913.16;4947491;28;20046;-68
2022/08/27 11:53:33;;;;;;;8.02;1.75;;;;;;;24.41;43.00;101916.66;4932398;28;20030;-68
2022/08/27 11:56:37;;;;;;;6.55;1.52;;;;;;;24.73;42.25;101913.09;4909221;28;20042;-68
2022/08/27 11:59:27;;;;;;;5.35;1.70;;;;;;;24.45;41.41;101915.69;4955642;28;20030;-68
2022/08/27 12:01:56;;;;;;;7.68;1.80;;;;;;;24.72;40.83;101916.69;4932477;28;20057;-67
2022/08/27 12:04:30;;;;;;;5.85;1.58;;;;;;;25.01;40.95;101917.59;4941080;28;20046;-67
2022/08/27 12:07:06;;;;;;;5.55;1.48;;;;;;;25.12;40.62;101911.09;4925287;28;20641;-68